createdAt,value
2018-02-22T00:00:36.457Z,-2.16
2018-02-22T00:01:36.458Z,-2.19
2018-02-22T00:02:36.361Z,-2.19
2018-02-22T00:03:36.311Z,-2.21
2018-02-22T00:04:36.561Z,-2.28
2018-02-22T00:05:36.210Z,-2.28
2018-02-22T00:06:36.160Z,-2.37
2018-02-22T00:07:36.166Z,-2.41
2018-02-22T00:08:36.062Z,-2.41
2018-02-22T00:09:36.013Z,-2.44
2018-02-22T00:10:35.964Z,-2.40
2018-02-22T00:11:36.218Z,-2.46
2018-02-22T00:12:35.877Z,-2.46
2018-02-22T00:13:35.815Z,-2.40
2018-02-22T00:14:35.774Z,-2.37
2018-02-22T00:15:35.722Z,-2.41
2018-02-22T00:16:35.666Z,-2.35
2018-02-22T00:17:35.620Z,-2.22
2018-02-22T00:18:35.867Z,-2.44
2018-02-22T00:19:35.519Z,-2.32
2018-02-22T00:20:35.470Z,-2.16
2018-02-22T00:21:35.423Z,-2.24
2018-02-22T00:22:35.372Z,-2.25
2018-02-22T00:23:35.322Z,-2.25
2018-02-22T00:24:35.271Z,-2.38
2018-02-22T00:25:35.524Z,-2.38
2018-02-22T00:26:35.174Z,-2.41
2018-02-22T00:27:35.127Z,-2.28
2018-02-22T00:28:35.224Z,-2.35
2018-02-22T00:29:35.031Z,-2.43
2018-02-22T00:30:34.976Z,-2.43
2018-02-22T00:31:34.928Z,-2.37
2018-02-22T00:32:35.181Z,-2.40
2018-02-22T00:33:34.833Z,-2.43
2018-02-22T00:34:34.883Z,-2.38
2018-02-22T00:35:34.729Z,-2.37
2018-02-22T00:36:34.679Z,-2.38
2018-02-22T00:37:34.637Z,-2.47
2018-02-22T00:38:34.582Z,-2.38
2018-02-22T00:39:34.832Z,-2.40
2018-02-22T00:40:34.486Z,-2.25
2018-02-22T00:41:34.433Z,-2.08
2018-02-22T00:42:34.384Z,-1.95
2018-02-22T00:43:34.332Z,-1.96
2018-02-22T00:44:34.281Z,-1.82
2018-02-22T00:45:34.533Z,-1.78
2018-02-22T00:46:34.184Z,-1.78
2018-02-22T00:47:34.134Z,-1.82
2018-02-22T00:48:34.082Z,-1.80
2018-02-22T00:49:34.041Z,-1.74
2018-02-22T00:50:33.985Z,-1.89
2018-02-22T00:51:34.241Z,-1.85
2018-02-22T00:52:33.936Z,-2.06
2018-02-22T00:53:33.842Z,-2.03
2018-02-22T00:54:33.788Z,-2.19
2018-02-22T00:55:33.737Z,-2.16
2018-02-22T00:56:33.740Z,-2.24
2018-02-22T00:57:33.941Z,-2.13
2018-02-22T00:58:33.593Z,-2.18
2018-02-22T00:59:33.540Z,-2.00
2018-02-22T01:00:33.488Z,-2.06
2018-02-22T01:01:33.441Z,-2.04
2018-02-22T01:02:33.447Z,-2.04
2018-02-22T01:03:33.647Z,-2.04
2018-02-22T01:04:33.291Z,-2.01
2018-02-22T01:05:33.241Z,-1.93
2018-02-22T01:06:33.194Z,-1.89
2018-02-22T01:07:33.142Z,-1.77
2018-02-22T01:08:33.094Z,-1.71
2018-02-22T01:09:33.343Z,-1.65
2018-02-22T01:10:32.995Z,-1.61
2018-02-22T01:11:32.950Z,-1.49
2018-02-22T01:12:32.896Z,-1.53
2018-02-22T01:13:32.846Z,-1.53
2018-02-22T01:14:32.798Z,-1.53
2018-02-22T01:15:32.748Z,-1.64
2018-02-22T01:16:32.997Z,-1.67
2018-02-22T01:17:32.647Z,-1.74
2018-02-22T01:18:32.652Z,-1.68
2018-02-22T01:19:32.552Z,-1.78
2018-02-22T01:20:32.498Z,-1.86
2018-02-22T01:21:32.450Z,-1.64
2018-02-22T01:22:32.406Z,-1.62
2018-02-22T01:23:32.652Z,-1.53
2018-02-22T01:24:32.359Z,-1.47
2018-02-22T01:25:32.250Z,-1.61
2018-02-22T01:26:32.203Z,-1.71
2018-02-22T01:27:32.154Z,-1.72
2018-02-22T01:28:32.103Z,-1.62
2018-02-22T01:29:32.062Z,-1.59
2018-02-22T01:30:32.306Z,-1.54
2018-02-22T01:31:31.955Z,-1.56
2018-02-22T01:32:31.910Z,-1.56
2018-02-22T01:33:31.856Z,-1.43
2018-02-22T01:34:31.808Z,-1.46
2018-02-22T01:35:31.758Z,-1.33
2018-02-22T01:36:31.708Z,-1.26
2018-02-22T01:37:31.966Z,-1.31
2018-02-22T01:38:31.609Z,-1.28
2018-02-22T01:39:31.559Z,-1.33
2018-02-22T01:40:31.661Z,-1.43
2018-02-22T01:41:31.461Z,-1.18
2018-02-22T01:42:31.412Z,-1.18
2018-02-22T01:43:31.370Z,-1.11
2018-02-22T01:44:31.614Z,-1.31
2018-02-22T01:45:31.263Z,-1.31
2018-02-22T01:46:31.271Z,-1.25
2018-02-22T01:47:31.164Z,-1.28
2018-02-22T01:48:31.114Z,-1.44
2018-02-22T01:49:31.066Z,-1.41
2018-02-22T01:50:31.575Z,-1.49
2018-02-22T01:51:31.269Z,-1.47
2018-02-22T01:52:30.967Z,-1.54
2018-02-22T01:53:31.763Z,-1.47
2018-02-22T01:54:31.834Z,-1.43
2018-02-22T01:55:31.704Z,-1.28
2018-02-22T01:56:31.805Z,-1.25
2018-02-22T01:57:31.395Z,-1.20
2018-02-22T01:58:31.190Z,-1.29
2018-02-22T01:59:31.427Z,-1.29
2018-02-22T02:00:31.697Z,-1.28
2018-02-22T02:01:31.486Z,-1.33
2018-02-22T02:02:31.201Z,-1.39
2018-02-22T02:03:31.868Z,-1.39
2018-02-22T02:04:30.616Z,-1.47
2018-02-22T02:05:31.273Z,-1.49
2018-02-22T02:06:31.279Z,-1.47
2018-02-22T02:07:31.398Z,-1.43
2018-02-22T02:08:30.838Z,-1.50
2018-02-22T02:09:31.856Z,-1.50
2018-02-22T02:10:31.257Z,-1.50
2018-02-22T02:11:31.071Z,-1.54
2018-02-22T02:12:31.033Z,-1.62
2018-02-22T02:13:30.686Z,-1.68
2018-02-22T02:14:31.222Z,-1.67
2018-02-22T02:16:32.318Z,-1.85
2018-02-22T02:17:31.108Z,-1.93
2018-02-22T02:18:30.357Z,-2.01
2018-02-22T02:19:31.052Z,-2.10
2018-02-22T02:20:31.090Z,-2.19
2018-02-22T02:21:29.484Z,-2.11
2018-02-22T02:22:30.871Z,-2.14
2018-02-22T02:23:30.650Z,-2.07
2018-02-22T02:24:31.053Z,-2.07
2018-02-22T02:25:30.922Z,-2.06
2018-02-22T02:26:30.838Z,-2.10
2018-02-22T02:29:30.171Z,-2.24
2018-02-22T02:30:31.746Z,-2.25
2018-02-22T02:31:30.642Z,-2.44
2018-02-22T02:32:30.043Z,-2.32
2018-02-22T02:33:30.754Z,-2.33
2018-02-22T02:34:30.132Z,-2.28
2018-02-22T02:35:30.198Z,-2.19
2018-02-22T02:36:30.158Z,-2.13
2018-02-22T02:37:30.880Z,-2.19
2018-02-22T02:38:29.754Z,-1.90
2018-02-22T02:39:30.253Z,-1.83
2018-02-22T02:40:30.141Z,-1.74
2018-02-22T02:41:29.856Z,-1.65
2018-02-22T02:42:29.976Z,-1.67
2018-02-22T02:43:30.024Z,-1.57
2018-02-22T02:44:30.857Z,-1.59
2018-02-22T02:46:29.660Z,-1.65
2018-02-22T02:48:29.696Z,-1.53
2018-02-22T02:49:29.466Z,-1.56
2018-02-22T02:50:29.488Z,-1.57
2018-02-22T02:51:29.462Z,-1.67
2018-02-22T02:52:29.379Z,-1.64
2018-02-22T02:53:28.547Z,-1.62
2018-02-22T02:54:27.857Z,-1.68
2018-02-22T02:55:27.817Z,-1.78
2018-02-22T02:56:28.793Z,-1.70
2018-02-22T02:57:28.716Z,-1.64
2018-02-22T02:58:29.153Z,-1.57
2018-02-22T02:59:28.857Z,-1.62
2018-02-22T03:00:28.792Z,-1.56
2018-02-22T03:01:28.404Z,-1.44
2018-02-22T03:02:28.486Z,-1.57
2018-02-22T03:03:28.463Z,-1.41
2018-02-22T03:04:29.162Z,-1.44
2018-02-22T03:05:28.196Z,-1.47
2018-02-22T03:06:27.578Z,-1.46
2018-02-22T03:07:28.140Z,-1.33
2018-02-22T03:08:28.088Z,-1.38
2018-02-22T03:09:28.131Z,-1.47
2018-02-22T03:10:27.776Z,-1.50
2018-02-22T03:11:27.345Z,-1.54
2018-02-22T03:12:27.924Z,-1.47
2018-02-22T03:13:27.422Z,-1.61
2018-02-22T03:14:26.970Z,-1.46
2018-02-22T03:15:27.808Z,-1.50
2018-02-22T03:16:27.315Z,-1.44
2018-02-22T03:17:27.703Z,-1.51
2018-02-22T03:18:27.828Z,-1.41
2018-02-22T03:19:26.618Z,-1.38
2018-02-22T03:21:27.850Z,-1.50
2018-02-22T03:22:28.429Z,-1.54
2018-02-22T03:25:27.724Z,-1.59
2018-02-22T03:26:27.654Z,-1.54
2018-02-22T03:27:27.857Z,-1.57
2018-02-22T03:28:27.963Z,-1.64
2018-02-22T03:29:26.879Z,-1.56
2018-02-22T03:30:26.442Z,-1.53
2018-02-22T03:31:27.058Z,-1.50
2018-02-22T03:32:26.017Z,-1.56
2018-02-22T03:33:26.309Z,-1.65
2018-02-22T03:34:26.833Z,-1.62
2018-02-22T03:35:26.475Z,-1.61
2018-02-22T03:36:25.774Z,-1.77
2018-02-22T03:37:26.659Z,-1.68
2018-02-22T03:38:26.295Z,-1.77
2018-02-22T03:39:26.105Z,-1.62
2018-02-22T03:40:26.397Z,-1.68
2018-02-22T03:41:26.044Z,-1.61
2018-02-22T03:42:26.028Z,-1.61
2018-02-22T03:43:26.525Z,-1.59
2018-02-22T03:44:26.268Z,-1.68
2018-02-22T03:45:25.930Z,-1.54
2018-02-22T03:46:25.528Z,-1.62
2018-02-22T03:47:26.213Z,-1.59
2018-02-22T03:48:25.484Z,-1.56
2018-02-22T03:49:26.305Z,-1.57
2018-02-22T03:50:26.090Z,-1.71
2018-02-22T03:51:25.720Z,-1.83
2018-02-22T03:52:25.234Z,-1.80
2018-02-22T03:53:25.946Z,-1.82
2018-02-22T03:54:25.087Z,-1.77
2018-02-22T03:55:25.963Z,-1.85
2018-02-22T03:56:25.534Z,-1.96
2018-02-22T03:57:25.082Z,-2.00
2018-02-22T03:58:25.683Z,-2.13
2018-02-22T03:59:24.689Z,-2.18
2018-02-22T04:00:25.544Z,-2.24
2018-02-22T04:01:25.877Z,-2.25
2018-02-22T04:02:25.621Z,-2.28
2018-02-22T04:03:25.291Z,-2.33
2018-02-22T04:04:24.388Z,-2.37
2018-02-22T04:05:24.645Z,-2.47
2018-02-22T04:06:24.301Z,-2.40
2018-02-22T04:07:25.122Z,-2.46
2018-02-22T04:08:24.778Z,-2.48
2018-02-22T04:09:25.073Z,-2.58
2018-02-22T04:10:24.841Z,-2.56
2018-02-22T04:11:24.219Z,-2.61
2018-02-22T04:12:25.111Z,-2.65
2018-02-22T04:13:24.392Z,-2.82
2018-02-22T04:14:24.898Z,-2.83
2018-02-22T04:15:24.016Z,-2.90
2018-02-22T04:16:24.442Z,-2.80
2018-02-22T04:17:24.711Z,-2.77
2018-02-22T04:18:23.692Z,-2.86
2018-02-22T04:19:24.772Z,-2.86
2018-02-22T04:20:24.055Z,-3.01
2018-02-22T04:21:24.492Z,-2.79
2018-02-22T04:22:24.095Z,-2.79
2018-02-22T04:23:23.565Z,-2.74
2018-02-22T04:24:23.394Z,-2.55
2018-02-22T04:25:24.314Z,-2.53
2018-02-22T04:26:23.905Z,-2.48
2018-02-22T04:27:24.329Z,-2.53
2018-02-22T04:28:24.857Z,-2.50
2018-02-22T04:29:23.434Z,-2.58
2018-02-22T04:30:23.411Z,-2.77
2018-02-22T04:31:24.173Z,-2.62
2018-02-22T04:32:23.772Z,-2.50
2018-02-22T04:33:22.995Z,-2.56
2018-02-22T04:34:23.504Z,-2.51
2018-02-22T04:35:23.219Z,-2.61
2018-02-22T04:36:22.945Z,-2.55
2018-02-22T04:37:23.736Z,-2.61
2018-02-22T04:38:23.946Z,-2.61
2018-02-22T04:39:23.134Z,-2.68
2018-02-22T04:40:23.139Z,-2.74
2018-02-22T04:41:22.538Z,-2.89
2018-02-22T04:42:22.490Z,-2.97
2018-02-22T04:43:22.440Z,-2.90
2018-02-22T04:44:23.633Z,-3.00
2018-02-22T04:45:23.543Z,-3.00
2018-02-22T04:46:22.293Z,-3.02
2018-02-22T04:47:23.747Z,-2.86
2018-02-22T04:48:23.268Z,-2.93
2018-02-22T04:49:22.788Z,-2.79
2018-02-22T04:50:22.713Z,-2.87
2018-02-22T04:51:22.982Z,-3.00
2018-02-22T04:52:22.095Z,-3.18
2018-02-22T04:53:22.061Z,-3.15
2018-02-22T04:54:23.216Z,-3.22
2018-02-22T04:55:22.585Z,-3.18
2018-02-22T04:56:21.790Z,-3.25
2018-02-22T04:57:21.738Z,-3.37
2018-02-22T04:58:21.691Z,-3.40
2018-02-22T04:59:21.640Z,-3.51
2018-02-22T05:00:22.176Z,-3.58
2018-02-22T05:01:22.738Z,-3.54
2018-02-22T05:02:22.506Z,-3.52
2018-02-22T05:03:22.449Z,-3.51
2018-02-22T05:04:21.802Z,-3.61
2018-02-22T05:05:21.337Z,-3.44
2018-02-22T05:06:21.861Z,-3.41
2018-02-22T05:07:22.137Z,-3.49
2018-02-22T05:08:22.608Z,-3.46
2018-02-22T05:09:21.381Z,-3.49
2018-02-22T05:10:21.086Z,-3.52
2018-02-22T05:11:21.040Z,-3.57
2018-02-22T05:12:21.078Z,-3.51
2018-02-22T05:13:21.830Z,-3.46
2018-02-22T05:14:21.351Z,-3.57
2018-02-22T05:15:21.869Z,-3.59
2018-02-22T05:16:21.794Z,-3.62
2018-02-22T05:17:21.719Z,-3.58
2018-02-22T05:18:21.684Z,-3.61
2018-02-22T05:19:21.104Z,-3.49
2018-02-22T05:20:20.598Z,-3.59
2018-02-22T05:21:20.533Z,-3.59
2018-02-22T05:22:21.795Z,-3.51
2018-02-22T05:23:20.432Z,-3.52
2018-02-22T05:24:20.801Z,-3.41
2018-02-22T05:25:20.333Z,-3.43
2018-02-22T05:26:21.381Z,-3.54
2018-02-22T05:27:21.272Z,-3.51
2018-02-22T05:28:20.479Z,-3.65
2018-02-22T05:29:20.250Z,-3.55
2018-02-22T05:30:21.293Z,-3.47
2018-02-22T05:31:20.420Z,-3.47
2018-02-22T05:32:20.316Z,-3.44
2018-02-22T05:33:20.079Z,-3.49
2018-02-22T05:34:20.343Z,-3.47
2018-02-22T05:35:19.882Z,-3.58
2018-02-22T05:36:19.954Z,-3.55
2018-02-22T05:37:19.728Z,-3.55
2018-02-22T05:38:19.678Z,-3.62
2018-02-22T05:39:19.628Z,-3.69
2018-02-22T05:40:19.876Z,-3.64
2018-02-22T05:41:19.554Z,-3.61
2018-02-22T05:42:19.475Z,-3.74
2018-02-22T05:43:19.480Z,-3.83
2018-02-22T05:44:19.968Z,-3.80
2018-02-22T05:45:19.537Z,-3.76
2018-02-22T05:46:20.124Z,-3.64
2018-02-22T05:47:19.921Z,-3.59
2018-02-22T05:48:20.137Z,-3.65
2018-02-22T05:49:19.660Z,-3.58
2018-02-22T05:50:19.418Z,-3.68
2018-02-22T05:51:19.749Z,-3.62
2018-02-22T05:52:19.418Z,-3.74
2018-02-22T05:53:20.616Z,-3.76
2018-02-22T05:54:19.294Z,-3.77
2018-02-22T05:55:19.592Z,-3.77
2018-02-22T05:56:18.762Z,-3.88
2018-02-22T05:57:18.714Z,-3.83
2018-02-22T05:58:18.663Z,-3.94
2018-02-22T05:59:19.689Z,-4.01
2018-02-22T06:00:19.787Z,-4.07
2018-02-22T06:01:19.521Z,-4.12
2018-02-22T06:02:18.464Z,-4.04
2018-02-22T06:03:18.412Z,-4.10
2018-02-22T06:04:18.358Z,-4.06
2018-02-22T06:05:18.398Z,-4.07
2018-02-22T06:06:18.260Z,-4.10
2018-02-22T06:07:18.510Z,-4.10
2018-02-22T06:08:18.158Z,-4.07
2018-02-22T06:09:18.107Z,-4.02
2018-02-22T06:10:18.056Z,-4.01
2018-02-22T06:11:18.065Z,-4.04
2018-02-22T06:12:17.957Z,-3.97
2018-02-22T06:13:17.906Z,-3.88
2018-02-22T06:14:18.155Z,-3.84
2018-02-22T06:15:17.804Z,-3.99
2018-02-22T06:16:17.754Z,-4.02
2018-02-22T06:17:17.756Z,-3.99
2018-02-22T06:18:17.653Z,-3.98
2018-02-22T06:19:17.645Z,-4.02
2018-02-22T06:20:17.554Z,-4.12
2018-02-22T06:21:17.801Z,-3.95
2018-02-22T06:22:17.448Z,-3.95
2018-02-22T06:23:17.450Z,-3.62
2018-02-22T06:24:17.348Z,-3.62
2018-02-22T06:25:17.298Z,-3.62
2018-02-22T06:26:17.252Z,-3.69
2018-02-22T06:27:17.498Z,-3.54
2018-02-22T06:28:17.145Z,-3.59
2018-02-22T06:29:17.095Z,-3.54
2018-02-22T06:30:17.044Z,-3.59
2018-02-22T06:31:16.995Z,-3.57
2018-02-22T06:32:16.945Z,-3.61
2018-02-22T06:33:17.196Z,-3.72
2018-02-22T06:34:16.842Z,-3.61
2018-02-22T06:35:16.794Z,-3.47
2018-02-22T06:36:16.741Z,-3.26
2018-02-22T06:37:16.697Z,-3.22
2018-02-22T06:38:16.640Z,-3.00
2018-02-22T06:39:16.896Z,-2.97
2018-02-22T06:40:16.542Z,-2.90
2018-02-22T06:41:16.492Z,-2.94
2018-02-22T06:42:16.446Z,-2.95
2018-02-22T06:43:16.391Z,-3.00
2018-02-22T06:44:16.338Z,-2.97
2018-02-22T06:45:16.645Z,-3.00
2018-02-22T06:46:16.241Z,-3.08
2018-02-22T06:47:16.387Z,-2.98
2018-02-22T06:48:16.137Z,-2.95
2018-02-22T06:49:16.087Z,-2.87
2018-02-22T06:50:16.034Z,-2.89
2018-02-22T06:51:16.286Z,-2.94
2018-02-22T06:52:15.939Z,-3.01
2018-02-22T06:53:15.886Z,-2.94
2018-02-22T06:54:15.833Z,-2.94
2018-02-22T06:55:15.787Z,-2.95
2018-02-22T06:56:15.782Z,-2.95
2018-02-22T06:57:15.985Z,-2.94
2018-02-22T06:58:15.633Z,-3.02
2018-02-22T06:59:15.582Z,-3.01
2018-02-22T07:00:15.533Z,-2.97
2018-02-22T07:01:15.485Z,-2.94
2018-02-22T07:02:15.533Z,-2.97
2018-02-22T07:03:15.383Z,-2.98
2018-02-22T07:04:15.630Z,-2.97
2018-02-22T07:05:15.283Z,-2.84
2018-02-22T07:06:15.235Z,-2.79
2018-02-22T07:07:15.181Z,-2.69
2018-02-22T07:08:15.184Z,-2.71
2018-02-22T07:09:15.080Z,-2.64
2018-02-22T07:10:15.032Z,-2.62
2018-02-22T07:11:15.283Z,-2.59
2018-02-22T07:12:14.930Z,-2.46
2018-02-22T07:13:14.883Z,-2.47
2018-02-22T07:14:14.832Z,-2.21
2018-02-22T07:15:14.786Z,-2.03
2018-02-22T07:16:14.740Z,-2.07
2018-02-22T07:17:14.681Z,-1.85
2018-02-22T07:18:14.935Z,-1.83
2018-02-22T07:19:14.762Z,-1.68
2018-02-22T07:20:14.535Z,-1.75
2018-02-22T07:21:14.486Z,-1.64
2018-02-22T07:22:14.434Z,-1.57
2018-02-22T07:23:16.791Z,-1.46
2018-02-22T07:24:14.336Z,-1.50
2018-02-22T07:25:14.687Z,-1.41
2018-02-22T07:26:14.259Z,-1.33
2018-02-22T07:27:14.187Z,-1.31
2018-02-22T07:28:14.136Z,-1.28
2018-02-22T07:29:14.087Z,-1.29
2018-02-22T07:30:14.044Z,-1.10
2018-02-22T07:31:14.041Z,-0.42
2018-02-22T07:32:14.249Z,0.23
2018-02-22T07:33:13.893Z,0.82
2018-02-22T07:34:13.902Z,1.36
2018-02-22T07:35:13.813Z,2.07
2018-02-22T07:36:13.746Z,2.19
2018-02-22T07:37:13.714Z,2.22
2018-02-22T07:38:13.949Z,2.20
2018-02-22T07:39:13.628Z,2.40
2018-02-22T07:40:13.577Z,2.62
2018-02-22T07:41:13.507Z,2.76
2018-02-22T07:42:13.456Z,2.80
2018-02-22T07:43:13.415Z,3.01
2018-02-22T07:44:13.666Z,3.23
2018-02-22T07:45:13.319Z,3.68
2018-02-22T07:46:13.276Z,3.74
2018-02-22T07:47:13.276Z,3.89
2018-02-22T07:48:13.182Z,4.26
2018-02-22T07:49:13.137Z,4.56
2018-02-22T07:50:13.395Z,4.72
2018-02-22T07:51:13.061Z,4.72
2018-02-22T07:52:13.002Z,5.15
2018-02-22T07:53:13.015Z,5.45
2018-02-22T07:54:12.918Z,5.49
2018-02-22T07:55:12.873Z,5.40
2018-02-22T07:56:13.179Z,5.48
2018-02-22T07:57:12.784Z,5.32
2018-02-22T07:58:12.743Z,5.45
2018-02-22T07:59:12.703Z,5.96
2018-02-22T08:00:12.715Z,5.55
2018-02-22T08:01:12.665Z,5.12
2018-02-22T08:02:12.874Z,5.23
2018-02-22T08:03:12.528Z,5.51
2018-02-22T08:04:12.486Z,5.93
2018-02-22T08:05:12.494Z,6.03
2018-02-22T08:06:12.458Z,6.35
2018-02-22T08:07:12.362Z,6.68
2018-02-22T08:08:12.319Z,5.73
2018-02-22T08:09:12.580Z,5.80
2018-02-22T08:10:12.237Z,6.11
2018-02-22T08:11:12.200Z,6.58
2018-02-22T08:13:12.113Z,6.42
2018-02-22T08:14:12.071Z,6.82
2018-02-22T08:15:12.031Z,7.41
2018-02-22T08:16:12.291Z,7.09
2018-02-22T08:17:12.000Z,7.01
2018-02-22T08:18:11.913Z,6.75
2018-02-22T08:19:11.869Z,7.14
2018-02-22T08:20:11.891Z,7.29
2018-02-22T08:21:11.790Z,7.50
2018-02-22T08:22:11.760Z,7.70
2018-02-22T08:23:12.009Z,7.71
2018-02-22T08:24:11.769Z,8.04
2018-02-22T08:25:11.635Z,7.39
2018-02-22T08:26:11.589Z,6.89
2018-02-22T08:27:11.599Z,7.29
2018-02-22T08:28:11.591Z,7.95
2018-02-22T08:29:11.476Z,8.07
2018-02-22T08:30:11.735Z,8.27
2018-02-22T08:31:11.397Z,8.83
2018-02-22T08:32:11.358Z,8.67
2018-02-22T08:33:11.313Z,8.27
2018-02-22T08:34:11.274Z,8.65
2018-02-22T08:35:11.237Z,8.85
2018-02-22T08:36:11.202Z,9.31
2018-02-22T08:37:11.507Z,9.27
2018-02-22T08:38:11.125Z,9.35
2018-02-22T08:39:11.142Z,9.03
2018-02-22T08:40:11.054Z,9.04
2018-02-22T08:41:11.012Z,8.94
2018-02-22T08:42:11.017Z,9.41
2018-02-22T08:43:10.936Z,9.78
2018-02-22T08:44:11.189Z,9.58
2018-02-22T08:45:10.951Z,9.32
2018-02-22T08:46:10.867Z,9.27
2018-02-22T08:47:10.824Z,10.09
2018-02-22T08:48:10.738Z,10.29
2018-02-22T08:49:10.751Z,10.35
2018-02-22T08:50:10.974Z,9.32
2018-02-22T08:51:10.627Z,9.15
2018-02-22T08:52:10.588Z,8.89
2018-02-22T08:53:10.553Z,8.78
2018-02-22T08:54:10.569Z,8.85
2018-02-22T08:55:10.627Z,9.52
2018-02-22T08:56:10.738Z,9.41
2018-02-22T08:57:10.419Z,9.30
2018-02-22T08:58:10.364Z,9.59
2018-02-22T08:59:10.328Z,9.96
2018-02-22T09:00:10.289Z,10.09
2018-02-22T09:01:10.261Z,9.93
2018-02-22T09:02:10.515Z,9.92
2018-02-22T09:03:10.186Z,10.32
2018-02-22T09:04:10.191Z,10.26
2018-02-22T09:05:10.155Z,9.88
2018-02-22T09:06:10.065Z,10.32
2018-02-22T09:07:10.080Z,10.07
2018-02-22T09:08:10.293Z,10.04
2018-02-22T09:09:09.954Z,10.07
2018-02-22T09:10:09.970Z,9.80
2018-02-22T09:11:09.883Z,9.22
2018-02-22T09:12:09.944Z,7.88
2018-02-22T09:13:09.813Z,8.06
2018-02-22T09:14:10.072Z,9.12
2018-02-22T09:15:09.737Z,10.58
2018-02-22T09:16:09.699Z,9.60
2018-02-22T09:18:09.628Z,10.69
2018-02-22T09:19:09.693Z,10.13
2018-02-22T09:20:09.858Z,10.83
2018-02-22T09:21:09.523Z,10.66
2018-02-22T09:22:09.531Z,10.44
2018-02-22T09:23:09.453Z,10.09
2018-02-22T09:24:09.415Z,9.80
2018-02-22T09:25:09.426Z,10.06
2018-02-22T09:26:09.338Z,9.30
2018-02-22T09:27:09.654Z,10.06
2018-02-22T09:28:09.266Z,9.68
2018-02-22T09:29:09.260Z,8.25
2018-02-22T09:30:09.198Z,7.39
2018-02-22T09:31:09.161Z,6.89
2018-02-22T09:32:09.226Z,6.13
2018-02-22T09:33:09.087Z,5.78
2018-02-22T09:34:09.352Z,5.55
2018-02-22T09:35:09.164Z,5.30
2018-02-22T09:36:08.972Z,4.99
2018-02-22T09:37:08.936Z,5.11
2018-02-22T09:38:08.903Z,5.20
2018-02-22T09:39:08.862Z,5.33
2018-02-22T09:40:08.821Z,6.43
2018-02-22T09:41:09.080Z,7.12
2018-02-22T09:42:08.746Z,8.17
2018-02-22T09:43:08.701Z,8.07
2018-02-22T09:44:08.663Z,7.04
2018-02-22T09:45:08.620Z,6.82
2018-02-22T09:46:08.580Z,6.86
2018-02-22T09:47:08.599Z,6.94
2018-02-22T09:48:08.852Z,5.98
2018-02-22T09:49:08.460Z,5.85
2018-02-22T09:50:08.425Z,5.51
2018-02-22T09:51:08.391Z,6.03
2018-02-22T09:52:08.342Z,5.99
2018-02-22T09:53:08.304Z,6.36
2018-02-22T09:54:08.266Z,6.43
2018-02-22T09:55:08.524Z,6.30
2018-02-22T09:56:08.183Z,6.30
2018-02-22T09:57:08.296Z,6.33
2018-02-22T09:58:08.101Z,5.81
2018-02-22T09:59:08.061Z,5.59
2018-02-22T10:00:08.020Z,5.42
2018-02-22T10:01:07.984Z,5.23
2018-02-22T10:02:08.239Z,5.35
2018-02-22T10:03:07.950Z,5.12
2018-02-22T10:04:07.858Z,5.26
2018-02-22T10:05:07.867Z,5.58
2018-02-22T10:06:07.775Z,5.59
2018-02-22T10:07:07.738Z,5.12
2018-02-22T10:08:07.992Z,5.63
2018-02-22T10:09:07.652Z,6.02
2018-02-22T10:10:07.661Z,5.88
2018-02-22T10:11:07.570Z,6.01
2018-02-22T10:12:07.678Z,6.05
2018-02-22T10:13:07.543Z,5.87
2018-02-22T10:14:07.745Z,6.08
2018-02-22T10:15:07.455Z,6.25
2018-02-22T10:16:07.362Z,5.62
2018-02-22T10:17:07.369Z,5.67
2018-02-22T10:18:07.292Z,5.52
2018-02-22T10:19:07.289Z,5.17
2018-02-22T10:20:07.499Z,5.24
2018-02-22T10:21:07.155Z,5.32
2018-02-22T10:22:07.114Z,5.75
2018-02-22T10:23:07.079Z,5.44
2018-02-22T10:24:07.092Z,5.73
2018-02-22T10:25:07.040Z,5.99
2018-02-22T10:26:07.249Z,6.40
2018-02-22T10:27:07.014Z,6.53
2018-02-22T10:28:06.915Z,6.79
2018-02-22T10:29:06.823Z,6.51
2018-02-22T10:30:06.833Z,6.87
2018-02-22T10:31:06.748Z,7.50
2018-02-22T10:32:07.100Z,7.52
2018-02-22T10:33:06.661Z,7.47
2018-02-22T10:34:06.620Z,7.07
2018-02-22T10:35:06.677Z,7.08
2018-02-22T10:36:06.538Z,7.41
2018-02-22T10:37:06.494Z,7.91
2018-02-22T10:38:06.456Z,7.60
2018-02-22T10:39:06.777Z,8.31
2018-02-22T10:40:06.424Z,9.77
2018-02-22T10:41:06.332Z,10.69
2018-02-22T10:42:06.344Z,10.06
2018-02-22T10:43:06.306Z,10.31
2018-02-22T10:44:06.216Z,9.98
2018-02-22T10:45:06.226Z,9.52
2018-02-22T10:46:06.448Z,8.71
2018-02-22T10:47:06.151Z,8.29
2018-02-22T10:48:06.111Z,9.08
2018-02-22T10:49:06.077Z,9.42
2018-02-22T10:50:06.065Z,9.95
2018-02-22T10:51:05.945Z,10.24
2018-02-22T10:52:05.957Z,10.63
2018-02-22T10:53:06.223Z,10.93
2018-02-22T10:54:05.834Z,10.25
2018-02-22T10:55:05.899Z,9.74
2018-02-22T10:56:05.807Z,9.68
2018-02-22T10:57:05.773Z,9.06
2018-02-22T10:58:05.743Z,8.78
2018-02-22T10:59:05.661Z,8.14
2018-02-22T11:00:05.962Z,9.08
2018-02-22T11:01:05.577Z,9.68
2018-02-22T11:02:05.591Z,9.75
2018-02-22T11:03:05.605Z,10.62
2018-02-22T11:04:05.465Z,10.69
2018-02-22T11:05:05.532Z,11.39
2018-02-22T11:06:05.402Z,11.77
2018-02-22T11:07:05.759Z,11.63
2018-02-22T11:08:05.380Z,11.94
2018-02-22T11:09:05.286Z,11.93
2018-02-22T11:10:05.356Z,11.46
2018-02-22T11:11:05.217Z,11.46
2018-02-22T11:12:05.229Z,10.99
2018-02-22T11:13:05.197Z,9.89
2018-02-22T11:14:05.413Z,8.58
2018-02-22T11:15:05.185Z,9.38
2018-02-22T11:16:05.089Z,9.89
2018-02-22T11:17:05.105Z,9.96
2018-02-22T11:18:05.119Z,10.36
2018-02-22T11:19:04.938Z,10.34
2018-02-22T11:20:05.201Z,9.27
2018-02-22T11:21:04.867Z,10.63
2018-02-22T11:22:04.883Z,11.44
2018-02-22T11:23:04.845Z,11.45
2018-02-22T11:24:04.764Z,11.87
2018-02-22T11:25:04.787Z,11.21
2018-02-22T11:26:04.993Z,11.13
2018-02-22T11:27:04.716Z,11.53
2018-02-22T11:28:04.721Z,10.81
2018-02-22T11:29:04.595Z,10.93
2018-02-22T11:30:04.707Z,10.38
2018-02-22T11:31:04.516Z,12.41
2018-02-22T11:32:04.788Z,12.33
2018-02-22T11:33:04.498Z,11.70
2018-02-22T11:34:04.418Z,11.70
2018-02-22T11:35:04.429Z,11.27
2018-02-22T11:36:04.343Z,11.79
2018-02-22T11:37:04.359Z,10.69
2018-02-22T11:38:04.674Z,11.24
2018-02-22T11:39:04.244Z,11.75
2018-02-22T11:40:04.206Z,12.00
2018-02-22T11:41:04.178Z,11.70
2018-02-22T11:42:04.194Z,11.97
2018-02-22T11:43:04.109Z,11.54
2018-02-22T11:44:04.411Z,11.87
2018-02-22T11:45:04.090Z,11.97
2018-02-22T11:46:04.004Z,11.69
2018-02-22T11:47:04.024Z,11.26
2018-02-22T11:48:03.992Z,11.44
2018-02-22T11:49:03.905Z,10.73
2018-02-22T11:50:04.271Z,11.21
2018-02-22T11:51:03.836Z,12.08
2018-02-22T11:52:03.850Z,12.98
2018-02-22T11:53:03.866Z,12.67
2018-02-22T11:54:03.732Z,11.70
2018-02-22T11:55:03.750Z,11.63
2018-02-22T11:56:03.662Z,11.28
2018-02-22T11:57:03.978Z,11.26
2018-02-22T11:58:03.655Z,10.90
2018-02-22T11:59:03.564Z,11.90
2018-02-22T12:00:03.584Z,12.19
2018-02-22T12:01:03.500Z,12.18
2018-02-22T12:02:03.509Z,12.08
2018-02-22T12:03:03.475Z,11.24
2018-02-22T12:04:03.688Z,11.98
2018-02-22T12:05:03.407Z,11.54
2018-02-22T12:06:03.321Z,11.53
2018-02-22T12:07:03.337Z,11.53
2018-02-22T12:08:03.365Z,11.38
2018-02-22T12:09:03.220Z,11.39
2018-02-22T12:10:03.236Z,10.86
2018-02-22T12:11:03.464Z,10.63
2018-02-22T12:12:03.275Z,10.66
2018-02-22T12:13:03.139Z,11.27
2018-02-22T12:14:03.053Z,11.67
2018-02-22T12:15:03.064Z,11.35
2018-02-22T12:16:03.075Z,10.87
2018-02-22T12:17:02.994Z,12.19
2018-02-22T12:18:03.296Z,12.34
2018-02-22T12:19:02.876Z,11.70
2018-02-22T12:20:02.904Z,12.12
2018-02-22T12:21:02.854Z,11.93
2018-02-22T12:22:02.872Z,12.34
2018-02-22T12:23:02.837Z,12.40
2018-02-22T12:24:02.701Z,11.28
2018-02-22T12:25:03.069Z,11.02
2018-02-22T12:26:02.680Z,11.79
2018-02-22T12:27:02.650Z,12.37
2018-02-22T12:28:02.714Z,11.59
2018-02-22T12:29:02.527Z,12.38
2018-02-22T12:30:02.577Z,12.21
2018-02-22T12:31:02.624Z,11.23
2018-02-22T12:32:02.825Z,9.98
2018-02-22T12:33:02.437Z,9.99
2018-02-22T12:34:02.358Z,10.93
2018-02-22T12:35:02.370Z,10.46
2018-02-22T12:36:02.359Z,11.45
2018-02-22T12:37:02.297Z,11.51
2018-02-22T12:38:02.578Z,9.42
2018-02-22T12:39:02.228Z,9.53
2018-02-22T12:40:02.405Z,9.38
2018-02-22T12:41:02.160Z,11.27
2018-02-22T12:42:02.221Z,11.28
2018-02-22T12:43:02.093Z,10.39
2018-02-22T12:44:02.350Z,10.01
2018-02-22T12:45:02.016Z,10.54
2018-02-22T12:46:01.983Z,11.45
2018-02-22T12:47:01.890Z,12.19
2018-02-22T12:48:01.957Z,12.03
2018-02-22T12:49:01.826Z,12.00
2018-02-22T12:50:02.084Z,12.05
2018-02-22T12:51:01.796Z,11.54
2018-02-22T12:52:01.709Z,11.90
2018-02-22T12:53:01.825Z,12.01
2018-02-22T12:54:01.639Z,11.90
2018-02-22T12:55:01.710Z,11.81
2018-02-22T12:56:01.875Z,12.16
2018-02-22T12:57:01.535Z,11.72
2018-02-22T12:58:01.545Z,10.69
2018-02-22T12:59:01.462Z,11.44
2018-02-22T13:00:01.474Z,12.12
2018-02-22T13:01:01.435Z,12.63
2018-02-22T13:02:01.649Z,13.44
2018-02-22T13:03:01.363Z,12.55
2018-02-22T13:04:01.278Z,13.47
2018-02-22T13:05:01.295Z,13.03
2018-02-22T13:06:01.254Z,12.33
2018-02-22T13:07:01.174Z,12.80
2018-02-22T13:08:01.234Z,11.88